M I D A S
Marine Information and Data Acquisition System
Tripno 1244 of the Zeeleeuw from 2007-04-10 06:39:03 to 2007-04-10 13:06:46
Back to CruiseResearch ActivitiesStationsMapUnderway DataData graphs

EquipmentUnitsComments
TimeDGPSUTC
LatitudeDGPSDM.mWGS84
LongitudeDGPSDM.mWGS84
SpeedMeteo Stationm/sRelative wind speed
DirectionMeteo StationdegRelative wind direction
TemperatureMeteo Stationdeg CelciusAir temperature
PressureMeteo StationPaAtmospheric pressure
HumidityMeteo Station%Relative humidity
Missing or incorrect values are displayed as -999
Metereological data collected by the RV Zeeleeuw from 2007-04-10 06:40:54 to 2007-04-10 13:10:20
Time Latitude Longitude Speed Direction Temperature Pressure Humidity
2007-04-10 06:42 51°13.613 2°56.049 2.6 39 10.6 102150 95
2007-04-10 06:43 51°13.639 2°55.953 5.9 36 10.7 102140 95
2007-04-10 06:44 51°13.672 2°55.85 4.3 34 10.8 102140 95
2007-04-10 06:45 51°13.686 2°55.772 3.2 30 10.8 102150 94
2007-04-10 06:45 51°13.686 2°55.722 2.4 34 10.7 102150 94
2007-04-10 06:46 51°13.697 2°55.72 1.4 253 10.7 102140 94
2007-04-10 06:47 51°13.752 2°55.692 3.9 326 10.7 102140 94
2007-04-10 06:48 51°13.86 2°55.612 5.2 321 10.7 102140 93
2007-04-10 06:49 51°13.994 2°55.519 5.9 317 10.7 102140 93
2007-04-10 06:50 51°14.131 2°55.42 6.9 320 10.6 102140 93
2007-04-10 06:52 51°14.256 2°55.274 6.8 319 10.7 102140 93
2007-04-10 06:52 51°14.353 2°55.096 8.2 319 10.6 102140 93
2007-04-10 06:53 51°14.438 2°54.894 8.7 328 10.5 102130 93
2007-04-10 06:54 51°14.445 2°54.605 11 337 10.5 102140 94
2007-04-10 06:55 51°14.362 2°54.29 10.7 338 10.4 102140 94
2007-04-10 06:56 51°14.261 2°53.983 10.4 338 10.4 102150 94
2007-04-10 06:57 51°14.158 2°53.685 10.5 337 10.4 102140 94
2007-04-10 06:58 51°14.056 2°53.389 10.2 337 10.4 102140 94
2007-04-10 06:59 51°13.952 2°53.093 10.5 338 10.4 102150 95
2007-04-10 07:00 51°13.85 2°52.796 9.7 337 10.3 102150 95
2007-04-10 07:01 51°13.747 2°52.5 10.1 337 10.3 102150 95
2007-04-10 07:02 51°13.644 2°52.203 10 337 10.3 102150 95
2007-04-10 07:03 51°13.541 2°51.908 10.3 337 10.3 102150 95
2007-04-10 07:04 51°13.439 2°51.613 9.9 339 10.3 102150 95
2007-04-10 07:05 51°13.338 2°51.318 9.9 340 10.3 102150 95
2007-04-10 07:06 51°13.235 2°51.021 10.4 340 10.3 102160 95
2007-04-10 07:07 51°13.132 2°50.723 9.8 340 10.3 102150 95
2007-04-10 07:08 51°13.028 2°50.424 10 339 10.3 102160 95
2007-04-10 07:09 51°12.922 2°50.126 9.9 337 10.3 102160 95
2007-04-10 07:10 51°12.818 2°49.825 10 337 10.3 102160 95
2007-04-10 07:11 51°12.714 2°49.524 9.8 338 10.4 102160 95
2007-04-10 07:12 51°12.61 2°49.223 9.8 338 10.4 102160 95
2007-04-10 07:13 51°12.506 2°48.92 10.1 338 10.4 102160 95
2007-04-10 07:14 51°12.402 2°48.617 9.6 337 10.3 102160 95
2007-04-10 07:15 51°12.298 2°48.314 9.9 337 10.3 102160 95
2007-04-10 07:16 51°12.194 2°48.009 9.5 336 10.3 102160 95
2007-04-10 07:17 51°12.117 2°47.683 9.9 336 10.3 102170 96
2007-04-10 07:18 51°12.052 2°47.349 10.2 337 10.4 102170 96
2007-04-10 07:19 51°11.993 2°47.012 10 335 10.3 102170 95
2007-04-10 07:20 51°11.941 2°46.672 10.3 337 10.3 102170 95
2007-04-10 07:21 51°11.892 2°46.332 10.5 340 10.3 102170 95
2007-04-10 07:22 51°11.842 2°45.994 10.6 337 10.3 102170 95
2007-04-10 07:23 51°11.801 2°45.651 10.5 336 10.4 102170 95
2007-04-10 07:24 51°11.759 2°45.308 10.6 336 10.4 102170 95
2007-04-10 07:25 51°11.717 2°44.962 10.2 335 10.4 102180 95
2007-04-10 07:26 51°11.675 2°44.615 10.7 336 10.4 102180 95
2007-04-10 07:27 51°11.633 2°44.267 10.7 336 10.4 102190 95
2007-04-10 07:28 51°11.592 2°43.918 10.7 334 10.4 102190 94
2007-04-10 07:29 51°11.551 2°43.569 10.2 333 10.4 102180 94
2007-04-10 07:30 51°11.489 2°43.231 10.3 334 10.4 102180 94
2007-04-10 07:31 51°11.401 2°42.908 10.6 335 10.4 102190 95
2007-04-10 07:32 51°11.307 2°42.606 9.2 334 10.4 102200 95
2007-04-10 07:33 51°11.242 2°42.419 6.9 335 10.4 102200 95
2007-04-10 07:34 51°11.199 2°42.3 6.1 334 10.4 102210 95
2007-04-10 07:35 51°11.168 2°42.207 5.3 338 10.4 102210 95
2007-04-10 07:36 51°11.132 2°42.146 5.2 342 10.4 102210 95
2007-04-10 07:37 51°11.106 2°42.091 5.1 337 10.4 102210 95
2007-04-10 07:38 51°11.097 2°42.06 3.9 335 10.4 102210 95
2007-04-10 07:39 51°11.095 2°42.051 3.9 335 10.5 102210 95
2007-04-10 07:40 51°11.094 2°42.044 4 338 10.5 102210 95
2007-04-10 07:41 51°11.092 2°42.04 4.1 340 10.5 102220 95
2007-04-10 07:42 51°11.091 2°42.038 4.3 346 10.4 102210 95
2007-04-10 07:43 51°11.09 2°42.039 4.2 349 10.4 102220 95
2007-04-10 07:44 51°11.09 2°42.041 4.1 356 10.3 102220 95
2007-04-10 07:45 51°11.086 2°42.04 4.7 358 10.3 102220 95
2007-04-10 07:46 51°11.011 2°41.946 9 339 10.2 102210 95
2007-04-10 07:47 51°10.906 2°41.656 11.1 333 10.3 102210 96
2007-04-10 07:48 51°10.849 2°41.306 11.1 331 10.3 102210 96
2007-04-10 07:49 51°10.799 2°40.953 11 332 10.4 102210 96
2007-04-10 07:50 51°10.746 2°40.605 11.6 331 10.4 102210 96
2007-04-10 07:51 51°10.696 2°40.255 11.9 331 10.4 102210 96
2007-04-10 07:52 51°10.647 2°39.905 11.8 330 10.4 102220 96
2007-04-10 07:53 51°10.596 2°39.554 10.8 331 10.4 102220 96
2007-04-10 07:54 51°10.551 2°39.203 11.1 331 10.4 102220 96
2007-04-10 07:55 51°10.511 2°38.851 11.6 332 10.4 102210 95
2007-04-10 07:56 51°10.469 2°38.498 11.3 333 10.4 102220 95
2007-04-10 07:57 51°10.427 2°38.143 11.2 334 10.4 102210 95
2007-04-10 07:58 51°10.385 2°37.788 11.5 334 10.4 102220 95
2007-04-10 07:59 51°10.344 2°37.434 11.6 332 10.5 102210 95
2007-04-10 08:00 51°10.318 2°37.075 11.9 333 10.5 102210 95
2007-04-10 08:01 51°10.315 2°36.715 11.6 330 10.5 102220 95
2007-04-10 08:02 51°10.408 2°36.399 11.4 322 10.5 102210 95
2007-04-10 08:03 51°10.61 2°36.286 9.3 36 10.5 102210 94
2007-04-10 08:04 51°10.82 2°36.384 7.4 37 10.5 102230 94
2007-04-10 08:05 51°11.031 2°36.498 7.7 34 10.5 102230 94
2007-04-10 08:06 51°11.243 2°36.604 7.3 39 10.5 102230 94
2007-04-10 08:07 51°11.457 2°36.705 7.8 37 10.5 102220 94
2007-04-10 08:08 51°11.668 2°36.807 7.5 37 10.5 102230 94
2007-04-10 08:09 51°11.879 2°36.906 7.9 32 10.5 102230 94
2007-04-10 08:10 51°12.091 2°37.001 7.5 32 10.5 102230 94
2007-04-10 08:11 51°12.302 2°37.094 8 33 10.5 102230 94
2007-04-10 08:12 51°12.515 2°37.184 7.8 33 10.5 102230 94
2007-04-10 08:13 51°12.728 2°37.273 8 35 10.5 102230 94
2007-04-10 08:14 51°12.943 2°37.362 7.6 37 10.4 102230 94
2007-04-10 08:15 51°13.158 2°37.453 7.5 32 10.4 102230 94
2007-04-10 08:16 51°13.373 2°37.543 7.7 36 10.4 102230 94
2007-04-10 08:17 51°13.591 2°37.594 8.9 37 10.4 102230 94
2007-04-10 08:18 51°13.811 2°37.501 8.8 317 10.3 102230 94
2007-04-10 08:19 51°14.023 2°37.376 10.2 317 10.4 102220 94
2007-04-10 08:20 51°14.237 2°37.256 10 316 10.4 102220 94
2007-04-10 08:21 51°14.452 2°37.143 9.8 317 10.3 102220 94
2007-04-10 08:22 51°14.664 2°37.03 10 316 10.3 102230 94
2007-04-10 08:23 51°14.879 2°36.918 9.8 316 10.3 102230 94
2007-04-10 08:24 51°15.096 2°36.804 9.7 318 10.3 102230 94
2007-04-10 08:25 51°15.31 2°36.693 10.2 317 10.3 102220 94
2007-04-10 08:26 51°15.524 2°36.582 10.6 317 10.3 102220 94
2007-04-10 08:27 51°15.738 2°36.47 10.4 318 10.3 102230 94
2007-04-10 08:28 51°15.95 2°36.354 10.6 316 10.3 102230 94
2007-04-10 08:29 51°16.168 2°36.286 8.8 35 10.3 102230 94
2007-04-10 08:30 51°16.337 2°36.434 3.8 243 10.3 102240 94
2007-04-10 08:31 51°16.401 2°36.565 3.6 260 10.4 102260 94
2007-04-10 08:32 51°16.449 2°36.617 4 258 10.4 102260 94
2007-04-10 08:33 51°16.484 2°36.647 3.1 265 10.5 102260 94
2007-04-10 08:34 51°16.508 2°36.683 3.3 42 10.5 102260 94
2007-04-10 08:35 51°16.536 2°36.725 2.5 263 10.4 102260 94
2007-04-10 08:36 51°16.576 2°36.769 3.3 267 10.4 102260 94
2007-04-10 08:37 51°16.605 2°36.81 4 37 10.4 102260 94
2007-04-10 08:38 51°16.611 2°36.817 3.9 31 10.4 102260 94
2007-04-10 08:39 51°16.614 2°36.825 4 32 10.3 102260 94
2007-04-10 08:40 51°16.616 2°36.836 4 33 10.3 102260 93
2007-04-10 08:41 51°16.618 2°36.848 4.4 30 10.3 102260 94
2007-04-10 08:42 51°16.631 2°36.872 3.6 261 10.2 102260 94
2007-04-10 08:43 51°16.718 2°36.935 5.9 237 10.3 102260 94
2007-04-10 08:44 51°16.891 2°37.111 6.1 32 10.3 102240 94
2007-04-10 08:45 51°17.076 2°37.301 6.4 32 10.4 102250 94
2007-04-10 08:46 51°17.263 2°37.492 6.1 35 10.4 102250 94
2007-04-10 08:47 51°17.448 2°37.682 6.2 37 10.4 102240 94
2007-04-10 08:48 51°17.636 2°37.87 6.3 37 10.4 102250 94
2007-04-10 08:49 51°17.824 2°38.058 6.5 39 10.4 102250 94
2007-04-10 08:50 51°18.012 2°38.244 6.9 38 10.4 102250 93
2007-04-10 08:51 51°18.2 2°38.433 7.1 33 10.4 102260 93
2007-04-10 08:52 51°18.387 2°38.622 6.5 36 10.3 102250 93
2007-04-10 08:53 51°18.576 2°38.813 6.4 39 10.3 102260 93
2007-04-10 08:54 51°18.763 2°39.009 7 19 10.3 102250 93
2007-04-10 08:55 51°18.95 2°39.209 6.8 19 10.3 102260 93
2007-04-10 08:56 51°19.138 2°39.405 6.7 21 10.3 102250 93
2007-04-10 08:57 51°19.325 2°39.595 6.8 23 10.3 102260 93
2007-04-10 08:58 51°19.508 2°39.786 7.2 28 10.3 102260 93
2007-04-10 08:59 51°19.706 2°39.921 8.2 23 10.3 102250 93
2007-04-10 09:00 51°19.923 2°39.933 9.5 20 10.3 102240 93
2007-04-10 09:01 51°20.142 2°39.924 9.5 24 10.2 102240 93
2007-04-10 09:02 51°20.363 2°39.921 9.4 25 10.2 102240 93
2007-04-10 09:03 51°20.584 2°39.923 9.6 25 10.2 102240 93
2007-04-10 09:04 51°20.806 2°39.93 8.7 27 10.2 102250 93
2007-04-10 09:05 51°21.023 2°39.946 9.4 22 10.2 102250 93
2007-04-10 09:06 51°21.24 2°39.962 9.1 24 10.2 102250 93
2007-04-10 09:07 51°21.457 2°39.979 8.5 26 10.2 102250 93
2007-04-10 09:08 51°21.675 2°39.998 8.9 23 10.2 102260 93
2007-04-10 09:09 51°21.893 2°40.015 8.9 24 10.2 102250 93
2007-04-10 09:10 51°22.109 2°40.032 9.2 25 10.2 102250 93
2007-04-10 09:11 51°22.326 2°40.05 8.7 26 10.2 102250 93
2007-04-10 09:12 51°22.544 2°40.065 8.9 28 10.2 102250 93
2007-04-10 09:13 51°22.763 2°40.079 8.9 24 10.2 102250 93
2007-04-10 09:14 51°22.978 2°40.101 8.9 22 10.2 102250 93
2007-04-10 09:15 51°23.192 2°40.126 8.8 22 10.2 102250 93
2007-04-10 09:16 51°23.365 2°40.318 4.8 26 10.2 102260 93
2007-04-10 09:17 51°23.462 2°40.635 4.2 21 10.2 102270 93
2007-04-10 09:18 51°23.56 2°40.952 5.1 24 10.3 102260 93
2007-04-10 09:19 51°23.674 2°41.248 5 22 10.3 102270 93
2007-04-10 09:20 51°23.786 2°41.546 4.9 27 10.3 102270 93
2007-04-10 09:21 51°23.9 2°41.839 4.8 21 10.3 102270 93
2007-04-10 09:22 51°24.01 2°42.135 4.5 21 10.3 102270 93
2007-04-10 09:23 51°24.12 2°42.433 4.6 19 10.3 102270 93
2007-04-10 09:24 51°24.229 2°42.732 4.9 19 10.3 102270 93
2007-04-10 09:25 51°24.336 2°43.033 4.5 23 10.4 102270 93
2007-04-10 09:26 51°24.437 2°43.337 4 26 10.3 102270 93
2007-04-10 09:27 51°24.539 2°43.642 4.8 23 10.4 102280 93
2007-04-10 09:28 51°24.64 2°43.946 4.8 19 10.4 102270 93
2007-04-10 09:29 51°24.741 2°44.25 4.6 22 10.4 102280 93
2007-04-10 09:30 51°24.841 2°44.553 4.3 20 10.4 102270 93
2007-04-10 09:31 51°24.937 2°44.86 4.4 20 10.4 102270 93
2007-04-10 09:32 51°25.031 2°45.171 4.9 18 10.4 102270 92
2007-04-10 09:33 51°25.125 2°45.483 4.7 19 10.4 102270 92
2007-04-10 09:34 51°25.214 2°45.797 4.6 24 10.4 102270 92
2007-04-10 09:35 51°25.3 2°46.116 4.1 27 10.4 102280 92
2007-04-10 09:36 51°25.383 2°46.437 4.3 27 10.4 102280 92
2007-04-10 09:37 51°25.464 2°46.76 4.5 25 10.4 102280 92
2007-04-10 09:38 51°25.54 2°47.085 4.2 26 10.4 102280 92
2007-04-10 09:39 51°25.621 2°47.407 3.8 21 10.4 102280 92
2007-04-10 09:40 51°25.698 2°47.701 3.1 20 10.4 102290 92
2007-04-10 09:41 51°25.749 2°47.89 3 252 10.5 102290 93
2007-04-10 09:42 51°25.79 2°48.032 3 257 10.6 102290 93
2007-04-10 09:43 51°25.839 2°48.143 3.5 257 10.6 102290 93
2007-04-10 09:44 51°25.884 2°48.234 4.2 257 10.7 102290 93
2007-04-10 09:45 51°25.917 2°48.312 2.7 265 10.7 102300 92
2007-04-10 09:46 51°25.946 2°48.374 2.9 263 10.6 102290 92
2007-04-10 09:47 51°25.969 2°48.42 3.4 264 10.6 102290 92
2007-04-10 09:48 51°25.986 2°48.459 3.9 23 10.5 102300 92
2007-04-10 09:49 51°25.998 2°48.496 3.6 19 10.5 102290 92
2007-04-10 09:50 51°25.998 2°48.508 4.3 270 10.4 102300 92
2007-04-10 09:51 51°25.998 2°48.516 3.7 270 10.4 102300 92
2007-04-10 09:52 51°25.998 2°48.52 3.3 265 10.3 102300 92
2007-04-10 09:53 51°25.997 2°48.522 3 263 10.3 102300 92
2007-04-10 09:54 51°25.995 2°48.521 2.7 266 10.3 102300 92
2007-04-10 09:55 51°26.009 2°48.54 2.4 269 10.3 102300 92
2007-04-10 09:56 51°26.031 2°48.668 1.8 28 10.3 102310 93
2007-04-10 09:57 51°26.082 2°48.971 3.5 320 10.3 102300 93
2007-04-10 09:58 51°26.122 2°49.306 2.7 329 10.4 102300 93
2007-04-10 09:59 51°26.05 2°49.632 3.6 345 10.4 102300 93
2007-04-10 10:00 51°25.954 2°49.945 3 343 10.3 102300 93
2007-04-10 10:01 51°25.873 2°50.268 3.7 344 10.3 102300 93
2007-04-10 10:02 51°25.788 2°50.587 3.8 347 10.3 102300 93
2007-04-10 10:03 51°25.7 2°50.905 3.4 343 10.2 102300 93
2007-04-10 10:04 51°25.615 2°51.221 2.9 338 10.3 102310 93
2007-04-10 10:05 51°25.534 2°51.534 3 340 10.3 102310 93
2007-04-10 10:06 51°25.454 2°51.852 3.5 340 10.3 102310 94
2007-04-10 10:07 51°25.371 2°52.175 3 338 10.3 102310 94
2007-04-10 10:08 51°25.286 2°52.499 2.8 338 10.3 102310 94
2007-04-10 10:09 51°25.201 2°52.822 2.4 336 10.4 102310 94
2007-04-10 10:10 51°25.117 2°53.142 2.2 339 10.4 102320 94
2007-04-10 10:11 51°25.032 2°53.464 2.1 340 10.4 102320 94
2007-04-10 10:12 51°24.95 2°53.784 2.7 337 10.5 102320 93
2007-04-10 10:13 51°24.868 2°54.101 2.5 331 10.5 102310 93
2007-04-10 10:14 51°24.784 2°54.418 2.1 330 10.6 102320 93
2007-04-10 10:15 51°24.701 2°54.732 2.3 336 10.6 102320 93
2007-04-10 10:16 51°24.615 2°55.047 2.8 340 10.6 102320 93
2007-04-10 10:17 51°24.53 2°55.361 2.9 335 10.6 102320 93
2007-04-10 10:18 51°24.448 2°55.678 3.6 338 10.6 102320 92
2007-04-10 10:19 51°24.364 2°55.993 3.1 338 10.6 102320 92
2007-04-10 10:20 51°24.282 2°56.307 2.9 340 10.5 102320 93
2007-04-10 10:21 51°24.2 2°56.62 3.6 340 10.5 102320 92
2007-04-10 10:22 51°24.117 2°56.931 3.4 343 10.5 102320 92
2007-04-10 10:23 51°24.033 2°57.245 3 339 10.5 102320 92
2007-04-10 10:24 51°23.949 2°57.558 3.6 342 10.5 102320 92
2007-04-10 10:25 51°23.865 2°57.869 3.4 342 10.5 102320 92
2007-04-10 10:26 51°23.754 2°58.157 4.5 345 10.5 102310 92
2007-04-10 10:27 51°23.618 2°58.424 4.8 346 10.5 102310 92
2007-04-10 10:28 51°23.466 2°58.668 5.2 347 10.4 102320 92
2007-04-10 10:29 51°23.298 2°58.887 5.4 350 10.3 102310 93
2007-04-10 10:30 51°23.142 2°59.126 5.1 351 10.3 102310 93
2007-04-10 10:31 51°23.017 2°59.403 3.9 350 10.2 102320 94
2007-04-10 10:32 51°22.93 2°59.707 3.2 339 10.2 102320 94
2007-04-10 10:33 51°22.877 3°0.032 3.4 339 10.3 102330 94
2007-04-10 10:34 51°22.822 3°0.356 3.3 343 10.4 102330 94
2007-04-10 10:35 51°22.766 3°0.678 2.8 343 10.4 102320 94
2007-04-10 10:36 51°22.707 3°0.996 1.6 338 10.5 102320 94
2007-04-10 10:37 51°22.659 3°1.318 2.8 340 10.5 102320 94
2007-04-10 10:38 51°22.623 3°1.644 2.7 334 10.6 102330 94
2007-04-10 10:39 51°22.592 3°1.973 3.2 336 10.7 102330 94
2007-04-10 10:40 51°22.564 3°2.298 2.9 331 10.8 102330 94
2007-04-10 10:41 51°22.539 3°2.628 2.8 328 10.8 102330 94
2007-04-10 10:42 51°22.514 3°2.957 2.9 335 10.8 102330 93
2007-04-10 10:43 51°22.49 3°3.285 3 336 10.9 102330 93
2007-04-10 10:44 51°22.464 3°3.613 2.7 329 10.9 102330 93
2007-04-10 10:45 51°22.438 3°3.938 2.4 333 11 102330 92
2007-04-10 10:46 51°22.416 3°4.264 2.8 334 11 102330 92
2007-04-10 10:47 51°22.399 3°4.59 2.8 325 11 102330 92
2007-04-10 10:48 51°22.381 3°4.915 2.6 338 11 102330 91
2007-04-10 10:49 51°22.362 3°5.239 2.8 335 11 102330 91
2007-04-10 10:50 51°22.344 3°5.564 2.2 322 11.1 102330 91
2007-04-10 10:51 51°22.325 3°5.889 2.4 334 11.1 102330 90
2007-04-10 10:52 51°22.308 3°6.213 2.8 332 11.1 102330 90
2007-04-10 10:53 51°22.301 3°6.539 2.5 325 11.2 102330 90
2007-04-10 10:54 51°22.295 3°6.866 2.4 330 11.2 102330 90
2007-04-10 10:55 51°22.288 3°7.192 2.9 330 11.2 102320 89
2007-04-10 10:56 51°22.279 3°7.517 2.5 322 11.3 102330 89
2007-04-10 10:57 51°22.279 3°7.838 2.5 328 11.2 102330 88
2007-04-10 10:58 51°22.28 3°8.157 3 332 11.3 102330 89
2007-04-10 10:59 51°22.266 3°8.478 2.5 334 11.3 102330 88
2007-04-10 11:00 51°22.249 3°8.799 3 334 11.3 102330 88
2007-04-10 11:01 51°22.233 3°9.122 3 337 11.2 102340 88
2007-04-10 11:02 51°22.216 3°9.447 2.9 336 11.2 102330 88
2007-04-10 11:03 51°22.204 3°9.772 2.8 336 11.1 102330 87
2007-04-10 11:04 51°22.214 3°10.097 3.1 332 11.1 102330 88
2007-04-10 11:05 51°22.231 3°10.421 2.7 333 11.2 102330 88
2007-04-10 11:06 51°22.253 3°10.745 3.4 327 11.2 102330 88
2007-04-10 11:07 51°22.301 3°11.06 2.8 327 11.2 102330 88
2007-04-10 11:08 51°22.352 3°11.373 2.6 323 11.2 102330 88
2007-04-10 11:09 51°22.399 3°11.687 2.9 331 11.2 102330 88
2007-04-10 11:10 51°22.438 3°12.003 3.2 334 11.2 102330 87
2007-04-10 11:12 51°22.466 3°12.313 1.9 322 11.3 102330 87
2007-04-10 11:13 51°22.497 3°12.505 0.7 40 11.4 102330 88
2007-04-10 11:14 51°22.519 3°12.627 1.5 37 11.5 102330 88
2007-04-10 11:15 51°22.545 3°12.744 1.1 23 11.6 102330 87
2007-04-10 11:16 51°22.564 3°12.876 1.2 35 11.6 102330 87
2007-04-10 11:17 51°22.579 3°13.007 1.6 22 11.6 102330 87
2007-04-10 11:18 51°22.593 3°13.101 2 33 11.6 102330 86
2007-04-10 11:19 51°22.603 3°13.162 1.8 20 11.5 102320 86
2007-04-10 11:20 51°22.607 3°13.192 2.5 38 11.6 102320 86
2007-04-10 11:21 51°22.611 3°13.199 4.1 22 11.5 102330 85
2007-04-10 11:22 51°22.617 3°13.198 4 34 11.3 102330 85
2007-04-10 11:23 51°22.623 3°13.191 4.1 37 11.1 102330 86
2007-04-10 11:24 51°22.629 3°13.179 4.2 21 11 102330 87
2007-04-10 11:25 51°22.642 3°13.169 3.7 270 11 102330 88
2007-04-10 11:26 51°22.68 3°13.135 5.8 25 11 102330 89
2007-04-10 11:27 51°22.694 3°13.017 6.5 331 11.1 102320 89
2007-04-10 11:28 51°22.655 3°12.767 11.1 331 11.1 102310 89
2007-04-10 11:29 51°22.584 3°12.41 11.3 333 11 102310 89
2007-04-10 11:30 51°22.522 3°12.041 11.3 331 11 102310 89
2007-04-10 11:31 51°22.473 3°11.666 11 331 10.9 102310 89
2007-04-10 11:32 51°22.425 3°11.29 11.5 330 10.9 102310 90
2007-04-10 11:33 51°22.374 3°10.916 11.2 331 10.9 102310 90
2007-04-10 11:34 51°22.323 3°10.544 11.1 330 10.9 102310 90
2007-04-10 11:35 51°22.269 3°10.176 11.2 330 10.8 102320 91
2007-04-10 11:36 51°22.215 3°9.805 11.1 330 10.8 102310 91
2007-04-10 11:37 51°22.161 3°9.435 10.9 330 10.8 102310 91
2007-04-10 11:38 51°22.105 3°9.066 11.8 332 10.8 102320 91
2007-04-10 11:39 51°22.059 3°8.694 10.8 329 10.8 102310 91
2007-04-10 11:40 51°22.014 3°8.321 11.4 330 10.8 102310 91
2007-04-10 11:41 51°21.971 3°7.948 11.6 330 10.8 102310 91
2007-04-10 11:42 51°21.927 3°7.575 11.1 331 10.8 102310 91
2007-04-10 11:43 51°21.882 3°7.2 11.1 330 10.8 102310 91
2007-04-10 11:44 51°21.836 3°6.825 11.1 329 10.8 102310 91
2007-04-10 11:45 51°21.778 3°6.455 11 331 10.8 102310 91
2007-04-10 11:46 51°21.716 3°6.084 11.2 331 10.8 102310 91
2007-04-10 11:47 51°21.655 3°5.715 11 331 10.8 102310 91
2007-04-10 11:48 51°21.591 3°5.347 11.5 332 10.8 102310 91
2007-04-10 11:49 51°21.522 3°4.982 10.8 333 10.8 102310 91
2007-04-10 11:50 51°21.454 3°4.618 11.3 332 10.8 102310 91
2007-04-10 11:51 51°21.388 3°4.254 11 331 10.8 102310 91
2007-04-10 11:52 51°21.318 3°3.893 11.2 334 10.8 102310 91
2007-04-10 11:53 51°21.244 3°3.533 11.3 333 10.8 102310 91
2007-04-10 11:54 51°21.171 3°3.172 11.4 334 10.8 102310 91
2007-04-10 11:55 51°21.098 3°2.811 11.9 332 10.8 102310 91
2007-04-10 11:56 51°21.023 3°2.443 11 334 10.8 102310 91
2007-04-10 11:57 51°20.949 3°2.086 11.8 333 10.8 102310 91
2007-04-10 11:58 51°20.87 3°1.723 11.6 333 10.8 102300 91
2007-04-10 11:59 51°20.787 3°1.363 11.4 331 10.8 102310 91
2007-04-10 12:00 51°20.703 3°1.003 10.9 333 10.8 102310 91
2007-04-10 12:01 51°20.621 3°0.644 11.5 334 10.8 102310 91
2007-04-10 12:02 51°20.54 3°0.283 11.5 333 10.9 102310 91
2007-04-10 12:03 51°20.459 2°59.921 11.7 335 10.9 102310 91
2007-04-10 12:04 51°20.375 2°59.561 11.2 335 10.9 102310 91
2007-04-10 12:05 51°20.28 2°59.202 10.6 335 10.9 102310 91
2007-04-10 12:06 51°20.188 2°58.854 10.7 336 10.9 102310 91
2007-04-10 12:07 51°20.093 2°58.502 10.5 335 10.9 102310 90
2007-04-10 12:08 51°19.997 2°58.151 11.2 334 11 102310 90
2007-04-10 12:09 51°19.891 2°57.806 10.2 334 11 102310 90
2007-04-10 12:10 51°19.783 2°57.462 10.7 335 11 102310 90
2007-04-10 12:11 51°19.675 2°57.117 10.8 337 11 102310 90
2007-04-10 12:12 51°19.566 2°56.773 11.7 338 11 102310 90
2007-04-10 12:13 51°19.46 2°56.428 11 337 11 102310 90
2007-04-10 12:14 51°19.353 2°56.085 10.2 336 11 102310 90
2007-04-10 12:15 51°19.245 2°55.742 10.8 337 11 102300 90
2007-04-10 12:16 51°19.134 2°55.392 11.2 339 11 102300 90
2007-04-10 12:17 51°19.028 2°55.054 11.2 340 11 102300 90
2007-04-10 12:18 51°18.921 2°54.71 11.4 338 11.1 102290 90
2007-04-10 12:19 51°18.812 2°54.367 11.7 339 11.1 102300 89
2007-04-10 12:20 51°18.705 2°54.023 11.7 339 11.1 102290 89
2007-04-10 12:21 51°18.601 2°53.675 10.8 339 11.1 102290 89
2007-04-10 12:22 51°18.5 2°53.324 10.5 338 11.2 102300 89
2007-04-10 12:23 51°18.398 2°52.973 10.7 339 11.2 102300 89
2007-04-10 12:24 51°18.278 2°52.64 11 344 11.2 102300 88
2007-04-10 12:25 51°18.081 2°52.437 9.1 352 11.1 102300 88
2007-04-10 12:26 51°17.848 2°52.379 8.3 352 10.9 102300 89
2007-04-10 12:27 51°17.613 2°52.347 8 352 10.8 102300 89
2007-04-10 12:28 51°17.377 2°52.328 7.7 353 10.7 102310 90
2007-04-10 12:29 51°17.144 2°52.336 7 352 10.6 102300 91
2007-04-10 12:30 51°16.947 2°52.496 3.9 351 10.6 102310 91
2007-04-10 12:31 51°16.815 2°52.778 3.2 344 10.6 102320 92
2007-04-10 12:32 51°16.694 2°53.078 3.7 343 10.7 102320 92
2007-04-10 12:33 51°16.586 2°53.358 2.9 346 10.9 102320 92
2007-04-10 12:34 51°16.495 2°53.631 3.3 336 11 102320 92
2007-04-10 12:35 51°16.426 2°53.854 1.2 358 11.1 102330 91
2007-04-10 12:36 51°16.377 2°53.971 1.1 38 11.2 102320 91
2007-04-10 12:37 51°16.35 2°54.05 1.2 44 11.3 102330 91
2007-04-10 12:38 51°16.331 2°54.11 1.2 40 11.3 102330 90
2007-04-10 12:39 51°16.311 2°54.178 0.8 41 11.3 102320 90
2007-04-10 12:40 51°16.296 2°54.249 1.5 34 11.4 102330 90
2007-04-10 12:41 51°16.29 2°54.296 2 39 11.4 102330 90
2007-04-10 12:42 51°16.288 2°54.318 1.8 34 11.4 102320 89
2007-04-10 12:43 51°16.286 2°54.327 2 34 11.4 102330 89
2007-04-10 12:44 51°16.283 2°54.328 2.5 34 11.3 102320 89
2007-04-10 12:45 51°16.28 2°54.324 3.1 36 11.4 102320 89
2007-04-10 12:46 51°16.276 2°54.315 2.7 33 11.4 102320 89
2007-04-10 12:47 51°16.27 2°54.303 2.8 270 11.4 102330 89
2007-04-10 12:48 51°16.271 2°54.299 2.2 270 11.4 102320 89
2007-04-10 12:49 51°16.275 2°54.326 1.2 39 11.4 102320 89
2007-04-10 12:50 51°16.241 2°54.374 3.2 11 11.5 102320 89
2007-04-10 12:51 51°16.136 2°54.402 5.6 348 11.4 102320 88
2007-04-10 12:52 51°15.969 2°54.418 6.1 346 11.2 102310 88
2007-04-10 12:53 51°15.788 2°54.437 6 348 11 102310 89
2007-04-10 12:54 51°15.606 2°54.458 6.8 348 11 102310 90
2007-04-10 12:55 51°15.428 2°54.495 6.2 345 10.9 102310 90
2007-04-10 12:56 51°15.25 2°54.539 6 345 10.9 102320 91
2007-04-10 12:57 51°15.073 2°54.59 5.9 347 10.9 102320 91
2007-04-10 12:58 51°14.899 2°54.658 6 347 10.9 102320 91
2007-04-10 12:59 51°14.708 2°54.757 6.8 346 10.9 102320 91
2007-04-10 13:00 51°14.515 2°54.904 6 347 10.9 102320 91
2007-04-10 13:01 51°14.349 2°55.121 5.6 345 10.9 102320 90
2007-04-10 13:02 51°14.199 2°55.344 5.4 347 11.1 102320 91
2007-04-10 13:03 51°14.046 2°55.469 3.1 355 11.2 102320 89
2007-04-10 13:04 51°13.924 2°55.559 4.1 2 11.4 102320 89
2007-04-10 13:05 51°13.805 2°55.654 3.6 329 11.5 102320 86
2007-04-10 13:06 51°13.708 2°55.791 0.6 42 11.7 102320 84
2007-04-10 13:07 51°13.653 2°55.916 1.5 31 11.9 102320 82
2007-04-10 13:08 51°13.618 2°56.013 1.3 26 12.1 102320 81
2007-04-10 13:09 51°13.605 2°56.079 3.4 20 12.3 102320 80
2007-04-10 13:10 51°13.601 2°56.096 2.9 26 12.4 102320 76